createdAt,value
2022-10-01T00:00:28.276Z,23.80
2022-10-01T00:02:55.680Z,21.73
2022-10-01T00:05:23.124Z,26.02
2022-10-01T00:07:51.731Z,27.10
2022-10-01T00:10:19.301Z,26.85
2022-10-01T00:12:48.454Z,27.50
2022-10-01T00:15:16.967Z,28.90
2022-10-01T00:17:44.359Z,29.33
2022-10-01T00:20:14.620Z,26.20
2022-10-01T00:22:42.294Z,27.70
2022-10-01T00:25:09.708Z,25.67
2022-10-01T00:27:37.261Z,24.30
2022-10-01T00:30:05.402Z,23.55
2022-10-01T00:32:33.177Z,25.70
2022-10-01T00:35:00.912Z,21.25
2022-10-01T00:37:28.173Z,24.50
2022-10-01T00:39:55.512Z,30.60
2022-10-01T00:42:24.308Z,32.92
2022-10-01T00:44:53.393Z,24.85
2022-10-01T00:47:32.776Z,25.20
2022-10-01T00:50:27.025Z,21.55
2022-10-01T00:52:55.816Z,19.33
2022-10-01T00:55:36.923Z,22.17
2022-10-01T00:58:08.481Z,22.20
2022-10-01T01:00:36.674Z,22.60
2022-10-01T01:03:04.972Z,19.98
2022-10-01T01:05:32.505Z,20.80
2022-10-01T01:08:01.653Z,25.17
2022-10-01T01:10:39.747Z,22.03
2022-10-01T01:13:13.899Z,23.67
2022-10-01T01:15:50.227Z,24.77
2022-10-01T01:18:31.308Z,29.98
2022-10-01T01:20:58.736Z,20.55
2022-10-01T01:23:44.779Z,22.63
2022-10-01T01:26:29.542Z,18.83
2022-10-01T01:29:01.128Z,22.33
2022-10-01T01:31:36.603Z,20.08
2022-10-01T01:34:12.509Z,20.13
2022-10-01T01:36:42.632Z,16.92
2022-10-01T01:39:12.181Z,19.13
2022-10-01T01:41:43.121Z,17.48
2022-10-01T01:44:12.005Z,17.92
2022-10-01T01:46:41.634Z,15.52
2022-10-01T01:49:09.740Z,20.33
2022-10-01T01:51:38.535Z,18.23
2022-10-01T01:54:05.896Z,19.02
2022-10-01T01:56:34.421Z,16.65
2022-10-01T01:59:02.122Z,18.15
2022-10-01T02:01:40.242Z,17.77
2022-10-01T02:04:30.845Z,15.75
2022-10-01T02:06:58.161Z,19.88
2022-10-01T02:09:28.251Z,20.67
2022-10-01T02:12:08.234Z,19.52
2022-10-01T02:17:11.523Z,18.88
2022-10-01T02:19:44.584Z,17.55
2022-10-01T02:22:13.176Z,18.45
2022-10-01T02:24:44.362Z,19.95
2022-10-01T02:27:25.303Z,16.55
2022-10-01T02:29:53.583Z,15.23
2022-10-01T02:32:20.964Z,19.83
2022-10-01T02:34:49.863Z,17.08
2022-10-01T02:37:18.532Z,19.33
2022-10-01T02:39:46.628Z,17.52
2022-10-01T02:42:15.423Z,23.17
2022-10-01T02:44:45.122Z,18.85
2022-10-01T02:47:15.402Z,13.43
2022-10-01T02:49:42.802Z,16.70
2022-10-01T02:52:31.469Z,18.20
2022-10-01T02:54:58.706Z,15.82
2022-10-01T02:57:29.845Z,17.77
2022-10-01T03:00:01.440Z,15.52
2022-10-01T03:02:29.748Z,16.75
2022-10-01T03:04:57.621Z,16.98
2022-10-01T03:07:25.850Z,15.90
2022-10-01T03:09:53.297Z,15.55
2022-10-01T03:12:20.637Z,17.73
2022-10-01T03:14:48.328Z,19.35
2022-10-01T03:17:16.249Z,18.02
2022-10-01T03:19:43.610Z,18.95
2022-10-01T03:22:12.487Z,19.02
2022-10-01T03:24:39.793Z,18.05
2022-10-01T03:27:07.092Z,18.17
2022-10-01T03:29:34.395Z,17.50
2022-10-01T03:32:01.776Z,17.83
2022-10-01T03:34:29.076Z,17.83
2022-10-01T03:36:56.392Z,19.42
2022-10-01T03:39:23.746Z,17.75
2022-10-01T03:41:51.105Z,17.98
2022-10-01T03:44:18.392Z,18.83
2022-10-01T03:46:45.744Z,17.90
2022-10-01T03:49:13.043Z,17.23
2022-10-01T03:51:40.428Z,18.02
2022-10-01T03:54:08.847Z,21.63
2022-10-01T03:56:36.601Z,19.17
2022-10-01T03:59:04.160Z,19.90
2022-10-01T04:01:31.801Z,19.42
2022-10-01T04:03:59.385Z,20.30
2022-10-01T04:06:26.650Z,17.60
2022-10-01T04:08:53.960Z,20.75
2022-10-01T04:11:21.757Z,18.05
2022-10-01T04:13:49.229Z,24.35
2022-10-01T04:16:16.606Z,21.25
2022-10-01T04:18:44.363Z,21.98
2022-10-01T04:21:12.872Z,24.98
2022-10-01T04:23:40.301Z,26.58
2022-10-01T04:26:08.057Z,22.75
2022-10-01T04:28:35.667Z,22.85
2022-10-01T04:31:21.650Z,19.90
2022-10-01T04:33:49.064Z,27.80
2022-10-01T04:36:16.412Z,28.10
2022-10-01T04:38:43.697Z,23.85
2022-10-01T04:41:10.946Z,22.55
2022-10-01T04:43:38.234Z,27.83
2022-10-01T04:46:05.753Z,23.25
2022-10-01T04:48:33.004Z,18.10
2022-10-01T04:51:00.464Z,21.08
2022-10-01T04:53:28.985Z,19.38
2022-10-01T04:55:56.442Z,25.95
2022-10-01T04:58:23.729Z,21.52
2022-10-01T05:00:51.106Z,24.23
2022-10-01T05:03:18.749Z,22.42
2022-10-01T05:05:46.235Z,24.08
2022-10-01T05:08:13.797Z,22.83
2022-10-01T05:10:41.238Z,25.42
2022-10-01T05:13:09.026Z,20.85
2022-10-01T05:15:37.896Z,20.73
2022-10-01T05:18:05.339Z,24.25
2022-10-01T05:20:34.118Z,21.65
2022-10-01T05:23:01.434Z,25.27
2022-10-01T05:25:28.715Z,20.20
2022-10-01T05:28:05.895Z,18.27
2022-10-01T05:30:34.258Z,16.33
2022-10-01T05:33:02.418Z,22.50
2022-10-01T05:35:30.263Z,20.15
2022-10-01T05:37:58.650Z,18.80
2022-10-01T05:40:27.496Z,22.48
2022-10-01T05:42:55.577Z,20.45
2022-10-01T05:45:23.455Z,20.40
2022-10-01T05:47:57.258Z,18.45
2022-10-01T05:50:25.510Z,20.80
2022-10-01T05:52:53.487Z,23.35
2022-10-01T05:55:21.095Z,20.83
2022-10-01T05:58:02.639Z,17.50
2022-10-01T06:00:31.994Z,23.90
2022-10-01T06:02:59.982Z,25.67
2022-10-01T06:05:28.602Z,23.98
2022-10-01T06:07:56.654Z,24.92
2022-10-01T06:10:25.670Z,19.00
2022-10-01T06:12:54.071Z,17.48
2022-10-01T06:15:22.841Z,19.90
2022-10-01T06:17:50.113Z,20.38
2022-10-01T06:20:19.519Z,20.65
2022-10-01T06:22:53.776Z,24.08
2022-10-01T06:25:21.400Z,22.80
2022-10-01T06:27:58.229Z,19.65
2022-10-01T06:30:29.347Z,19.60
2022-10-01T06:33:03.307Z,18.27
2022-10-01T06:35:32.400Z,18.83
2022-10-01T06:38:03.140Z,21.23
2022-10-01T06:40:31.328Z,22.70
2022-10-01T06:42:59.475Z,21.42
2022-10-01T06:45:31.560Z,23.23
2022-10-01T06:48:02.800Z,21.90
2022-10-01T06:50:33.696Z,21.73
2022-10-01T06:53:02.109Z,24.02
2022-10-01T06:55:31.577Z,23.70
2022-10-01T06:58:00.107Z,20.27
2022-10-01T07:00:30.633Z,24.02
2022-10-01T07:02:58.020Z,20.42
2022-10-01T07:05:25.512Z,18.05
2022-10-01T07:07:53.730Z,18.35
2022-10-01T07:10:21.526Z,13.57
2022-10-01T07:12:49.365Z,16.77
2022-10-01T07:15:17.229Z,13.38
2022-10-01T07:17:49.603Z,13.57
2022-10-01T07:20:17.948Z,24.15
2022-10-01T07:22:45.418Z,16.48
2022-10-01T07:25:13.898Z,18.67
2022-10-01T07:27:41.525Z,16.23
2022-10-01T07:30:09.135Z,15.23
2022-10-01T07:32:36.455Z,16.70
2022-10-01T07:35:03.812Z,13.38
2022-10-01T07:37:31.154Z,15.98
2022-10-01T07:39:58.462Z,12.05
2022-10-01T07:42:27.362Z,13.40
2022-10-01T07:44:55.455Z,16.38
2022-10-01T07:47:22.835Z,15.48
2022-10-01T07:49:50.090Z,18.02
2022-10-01T07:52:17.452Z,20.38
2022-10-01T07:54:44.741Z,18.85
2022-10-01T07:57:12.067Z,16.08
2022-10-01T07:59:41.128Z,15.68
2022-10-01T08:02:15.850Z,14.77
2022-10-01T08:05:02.029Z,16.23
2022-10-01T08:07:31.554Z,14.77
2022-10-01T08:09:58.921Z,14.15
2022-10-01T08:12:28.357Z,20.35
2022-10-01T08:14:56.039Z,16.70
2022-10-01T08:17:27.279Z,20.02
2022-10-01T08:19:56.739Z,16.65
2022-10-01T08:22:24.088Z,17.35
2022-10-01T08:24:51.438Z,18.83
2022-10-01T08:27:18.674Z,19.63
2022-10-01T08:29:45.946Z,20.23
2022-10-01T08:32:13.306Z,19.23
2022-10-01T08:34:40.606Z,26.15
2022-10-01T08:37:07.877Z,24.15
2022-10-01T08:39:37.146Z,30.55
2022-10-01T08:42:19.378Z,23.92
2022-10-01T08:44:46.972Z,20.02
2022-10-01T08:47:17.887Z,18.10
2022-10-01T08:49:56.583Z,16.27
2022-10-01T08:52:29.123Z,16.98
2022-10-01T08:54:58.727Z,19.10
2022-10-01T08:57:29.560Z,23.40
2022-10-01T09:00:01.441Z,20.25
2022-10-01T09:02:28.746Z,21.75
2022-10-01T09:05:01.487Z,22.50
2022-10-01T09:07:38.168Z,24.90
2022-10-01T09:10:28.900Z,23.52
2022-10-01T09:13:11.577Z,20.42
2022-10-01T09:15:44.406Z,17.05
2022-10-01T09:18:29.898Z,20.60
2022-10-01T09:20:58.915Z,17.83
2022-10-01T09:23:30.155Z,18.10
2022-10-01T09:26:00.203Z,17.95
2022-10-01T09:28:31.767Z,18.83
2022-10-01T09:31:04.961Z,18.95
2022-10-01T09:33:34.070Z,19.30
2022-10-01T09:36:06.067Z,18.00
2022-10-01T09:38:37.268Z,17.10
2022-10-01T09:41:05.115Z,17.60
2022-10-01T09:43:37.513Z,18.67
2022-10-01T09:46:13.705Z,20.48
2022-10-01T09:48:41.259Z,21.98
2022-10-01T09:51:19.974Z,22.85
2022-10-01T09:53:53.566Z,20.30
2022-10-01T09:56:27.542Z,20.98
2022-10-01T09:58:56.486Z,20.75
2022-10-01T10:02:15.217Z,15.50
2022-10-01T10:04:42.350Z,15.27
2022-10-01T10:07:19.176Z,18.52
2022-10-01T10:09:47.077Z,17.20
2022-10-01T10:12:32.110Z,20.80
2022-10-01T10:15:09.260Z,15.85
2022-10-01T10:17:38.674Z,16.00
2022-10-01T10:20:12.389Z,15.93
2022-10-01T10:22:40.264Z,17.88
2022-10-01T10:25:21.940Z,14.02
2022-10-01T10:27:56.435Z,11.82
2022-10-01T10:30:24.906Z,14.95
2022-10-01T10:32:54.429Z,13.45
2022-10-01T10:35:28.584Z,13.90
2022-10-01T10:37:59.956Z,14.65
2022-10-01T10:40:43.103Z,15.32
2022-10-01T10:43:22.803Z,16.35
2022-10-01T10:45:57.679Z,21.92
2022-10-01T10:48:35.488Z,25.67
2022-10-01T10:51:05.100Z,22.77
2022-10-01T10:53:44.495Z,23.80
2022-10-01T10:56:29.530Z,24.38
2022-10-01T10:59:10.403Z,19.23
2022-10-01T11:01:43.189Z,20.25
2022-10-01T11:04:36.893Z,22.98
2022-10-01T11:07:05.171Z,23.25
2022-10-01T11:09:59.702Z,18.95
2022-10-01T11:13:00.999Z,18.10
2022-10-01T11:15:44.114Z,15.73
2022-10-01T11:18:34.214Z,16.02
2022-10-01T11:21:28.973Z,13.13
2022-10-01T11:24:11.674Z,11.68
2022-10-01T11:26:42.692Z,10.60
2022-10-01T11:29:28.685Z,8.98
2022-10-01T11:32:19.449Z,8.57
2022-10-01T11:35:05.159Z,10.88
2022-10-01T11:37:39.586Z,8.20
2022-10-01T11:40:47.629Z,8.20
2022-10-01T11:43:46.786Z,7.65
2022-10-01T11:46:28.404Z,8.50
2022-10-01T11:49:02.542Z,7.47
2022-10-01T11:51:40.662Z,8.23
2022-10-01T11:54:11.490Z,8.82
2022-10-01T11:57:02.538Z,8.60
2022-10-01T11:59:42.644Z,8.38
2022-10-01T12:02:25.276Z,10.68
2022-10-01T12:05:11.137Z,9.10
2022-10-01T12:07:42.778Z,11.70
2022-10-01T12:10:10.684Z,8.23
2022-10-01T12:12:49.330Z,10.07
2022-10-01T12:15:19.657Z,12.75
2022-10-01T12:17:53.522Z,13.63
2022-10-01T12:20:42.913Z,9.27
2022-10-01T12:23:14.160Z,9.95
2022-10-01T12:25:51.717Z,8.25
2022-10-01T12:28:33.115Z,6.47
2022-10-01T12:31:12.805Z,7.32
2022-10-01T12:33:49.118Z,10.10
2022-10-01T12:36:19.215Z,8.27
2022-10-01T12:38:49.460Z,8.68
2022-10-01T12:41:17.128Z,10.95
2022-10-01T12:43:56.663Z,10.82
2022-10-01T12:46:25.446Z,14.65
2022-10-01T12:49:02.086Z,11.02
2022-10-01T12:51:42.823Z,9.50
2022-10-01T12:54:42.800Z,9.23
2022-10-01T12:57:12.802Z,10.45
2022-10-01T12:59:52.494Z,9.05
2022-10-01T13:02:22.788Z,10.65
2022-10-01T13:04:59.029Z,10.30
2022-10-01T13:07:29.466Z,91.20
2022-10-01T13:10:03.438Z,11.48
2022-10-01T13:12:30.720Z,11.38
2022-10-01T13:14:59.020Z,10.10
2022-10-01T13:17:42.441Z,11.00
2022-10-01T13:20:30.367Z,11.52
2022-10-01T13:23:11.998Z,10.65
2022-10-01T13:25:42.287Z,11.02
2022-10-01T13:28:13.262Z,11.15
2022-10-01T13:31:00.639Z,16.08
2022-10-01T13:33:32.876Z,13.27
2022-10-01T13:36:02.586Z,12.80
2022-10-01T13:38:38.685Z,14.23
2022-10-01T13:41:21.769Z,12.93
2022-10-01T13:44:33.123Z,17.05
2022-10-01T13:47:07.255Z,10.10
2022-10-01T13:49:36.061Z,10.63
2022-10-01T13:52:03.432Z,10.90
2022-10-01T13:54:45.614Z,9.40
2022-10-01T13:57:33.031Z,11.90
2022-10-01T14:00:07.579Z,10.63
2022-10-01T14:02:36.723Z,12.00
2022-10-01T14:05:27.119Z,12.50
2022-10-01T14:07:59.783Z,10.82
2022-10-01T14:10:33.830Z,11.52
2022-10-01T14:13:22.130Z,10.27
2022-10-01T14:16:03.447Z,13.48
2022-10-01T14:18:34.438Z,16.15
2022-10-01T14:21:19.880Z,15.93
2022-10-01T14:23:47.139Z,17.23
2022-10-01T14:26:21.949Z,20.05
2022-10-01T14:28:49.196Z,19.92
2022-10-01T14:31:35.248Z,17.63
2022-10-01T14:34:17.838Z,18.58
2022-10-01T14:36:46.473Z,17.77
2022-10-01T14:39:13.660Z,16.10
2022-10-01T14:41:41.006Z,17.95
2022-10-01T14:44:33.582Z,16.58
2022-10-01T14:47:01.048Z,18.80
2022-10-01T14:49:32.145Z,19.00
2022-10-01T14:52:01.952Z,17.70
2022-10-01T14:54:31.889Z,13.30
2022-10-01T14:59:31.032Z,10.75
2022-10-01T15:02:00.235Z,11.98
2022-10-01T15:04:28.693Z,13.65
2022-10-01T15:07:03.450Z,9.43
2022-10-01T15:09:33.913Z,8.38
2022-10-01T15:12:01.331Z,7.82
2022-10-01T15:14:29.912Z,11.02
2022-10-01T15:16:57.171Z,8.73
2022-10-01T15:19:24.957Z,8.50
2022-10-01T15:21:57.724Z,8.07
2022-10-01T15:24:34.686Z,7.82
2022-10-01T15:27:04.088Z,11.25
2022-10-01T15:29:32.887Z,10.40
2022-10-01T15:32:03.600Z,9.43
2022-10-01T15:34:34.631Z,8.48
2022-10-01T15:37:02.115Z,8.30
2022-10-01T15:39:38.064Z,9.18
2022-10-01T15:42:33.363Z,8.60
2022-10-01T15:45:09.574Z,8.73
2022-10-01T15:47:38.482Z,7.32
2022-10-01T15:50:11.542Z,9.63
2022-10-01T15:53:04.636Z,9.85
2022-10-01T15:55:42.361Z,13.93
2022-10-01T15:58:20.106Z,9.50
2022-10-01T16:00:47.720Z,10.00
2022-10-01T16:03:26.054Z,11.30
2022-10-01T16:05:55.360Z,8.82
2022-10-01T16:08:46.532Z,8.95
2022-10-01T16:11:14.728Z,8.55
2022-10-01T16:13:47.203Z,9.20
2022-10-01T16:16:15.744Z,10.27
2022-10-01T16:18:43.525Z,9.82
2022-10-01T16:21:11.668Z,9.90
2022-10-01T16:23:49.519Z,10.40
2022-10-01T16:26:28.390Z,10.27
2022-10-01T16:29:06.369Z,13.80
2022-10-01T16:31:37.162Z,10.20
2022-10-01T16:34:15.234Z,9.60
2022-10-01T16:36:42.978Z,15.00
2022-10-01T16:39:12.630Z,12.75
2022-10-01T16:41:43.552Z,10.38
2022-10-01T16:44:13.467Z,9.13
2022-10-01T16:49:14.344Z,13.70
2022-10-01T16:51:42.860Z,15.88
2022-10-01T16:54:24.884Z,20.15
2022-10-01T16:56:56.703Z,27.42
2022-10-01T16:59:24.808Z,36.95
2022-10-01T17:01:55.780Z,26.55
2022-10-01T17:04:28.370Z,23.38
2022-10-01T17:06:58.354Z,27.35
2022-10-01T17:09:25.352Z,26.90
2022-10-01T17:11:52.420Z,30.17
2022-10-01T17:14:21.311Z,27.45
2022-10-01T17:16:50.987Z,23.70
2022-10-01T17:19:19.351Z,19.85
2022-10-01T17:21:46.659Z,24.65
2022-10-01T17:24:14.816Z,26.63
2022-10-01T17:26:45.364Z,24.23
2022-10-01T17:29:12.931Z,21.30
2022-10-01T17:31:40.993Z,18.63
2022-10-01T17:34:08.425Z,22.23
2022-10-01T17:36:35.506Z,24.75
2022-10-01T17:39:02.693Z,21.17
2022-10-01T17:41:29.785Z,29.30
2022-10-01T17:43:58.726Z,37.65
2022-10-01T17:46:26.652Z,36.45
2022-10-01T17:48:53.662Z,40.65
2022-10-01T17:51:21.103Z,36.53
2022-10-01T17:53:48.216Z,41.90
2022-10-01T17:56:19.704Z,33.75
2022-10-01T17:58:47.454Z,31.55
2022-10-01T18:01:22.808Z,30.48
2022-10-01T18:03:58.095Z,29.27
2022-10-01T18:06:25.359Z,24.35
2022-10-01T18:08:56.675Z,25.55
2022-10-01T18:11:26.307Z,23.38
2022-10-01T18:13:53.433Z,26.35
2022-10-01T18:16:22.944Z,30.00
2022-10-01T18:21:48.494Z,26.75
2022-10-01T18:24:17.655Z,29.77
2022-10-01T18:26:46.729Z,28.80
2022-10-01T18:29:26.707Z,28.53
2022-10-01T18:32:14.172Z,30.45
2022-10-01T18:34:55.554Z,34.63
2022-10-01T18:37:24.451Z,33.63
2022-10-01T18:40:07.365Z,35.20
2022-10-01T18:42:54.349Z,36.05
2022-10-01T18:45:34.685Z,32.17
2022-10-01T18:48:14.344Z,30.15
2022-10-01T18:50:51.516Z,33.08
2022-10-01T18:53:24.701Z,33.10
2022-10-01T18:56:10.691Z,30.38
2022-10-01T18:58:37.931Z,32.20
2022-10-01T19:01:24.541Z,35.15
2022-10-01T19:04:22.246Z,30.42
2022-10-01T19:07:10.199Z,34.25
2022-10-01T19:09:37.729Z,30.98
2022-10-01T19:12:35.487Z,29.92
2022-10-01T19:15:08.466Z,36.55
2022-10-01T19:17:47.922Z,33.45
2022-10-01T19:20:33.629Z,33.40
2022-10-01T19:23:31.022Z,41.20
2022-10-01T19:26:07.400Z,35.95
2022-10-01T19:28:53.118Z,36.90
2022-10-01T19:31:22.832Z,38.22
2022-10-01T19:33:56.901Z,48.53
2022-10-01T19:36:34.775Z,46.92
2022-10-01T19:39:10.968Z,43.53
2022-10-01T19:42:16.247Z,37.90
2022-10-01T19:45:02.011Z,44.42
2022-10-01T19:47:41.090Z,44.20
2022-10-01T19:50:39.767Z,52.53
2022-10-01T19:53:30.983Z,48.45
2022-10-01T19:56:00.849Z,49.80
2022-10-01T19:58:30.664Z,48.42
2022-10-01T20:01:00.379Z,48.83
2022-10-01T20:03:40.375Z,48.08
2022-10-01T20:08:55.479Z,47.20
2022-10-01T20:11:42.661Z,47.17
2022-10-01T20:14:38.198Z,37.70
2022-10-01T20:17:15.525Z,44.25
2022-10-01T20:20:02.024Z,40.15
2022-10-01T20:22:58.924Z,47.63
2022-10-01T20:25:46.063Z,48.55
2022-10-01T20:28:31.512Z,42.17
2022-10-01T20:31:17.455Z,42.78
2022-10-01T20:34:09.654Z,37.97
2022-10-01T20:37:09.364Z,42.95
2022-10-01T20:39:41.780Z,40.92
2022-10-01T20:42:15.587Z,35.78
2022-10-01T20:44:43.805Z,35.15
2022-10-01T20:47:33.192Z,34.60
2022-10-01T20:50:09.393Z,27.55
2022-10-01T20:53:03.937Z,35.08
2022-10-01T20:56:05.185Z,34.85
2022-10-01T20:58:44.617Z,37.83
2022-10-01T21:01:20.850Z,39.13
2022-10-01T21:03:53.307Z,37.25
2022-10-01T21:06:30.903Z,42.10
2022-10-01T21:09:15.120Z,37.88
2022-10-01T21:11:49.675Z,36.38
2022-10-01T21:14:46.416Z,32.97
2022-10-01T21:17:33.567Z,34.33
2022-10-01T21:20:03.502Z,33.45
2022-10-01T21:25:13.162Z,30.63
2022-10-01T21:28:22.011Z,30.23
2022-10-01T21:31:26.944Z,30.55
2022-10-01T21:34:13.167Z,35.60
2022-10-01T21:36:55.101Z,32.70
2022-10-01T21:39:31.496Z,34.58
2022-10-01T21:42:08.565Z,38.55
2022-10-01T21:45:06.320Z,34.90
2022-10-01T21:47:59.444Z,38.78
2022-10-01T21:51:02.995Z,36.58
2022-10-01T21:53:44.891Z,32.75
2022-10-01T21:56:14.786Z,34.08
2022-10-01T21:58:50.857Z,30.13
2022-10-01T22:01:46.316Z,35.95
2022-10-01T22:04:24.209Z,31.17
2022-10-01T22:07:02.064Z,34.85
2022-10-01T22:09:43.123Z,32.40
2022-10-01T22:12:12.195Z,37.05
2022-10-01T22:14:40.532Z,29.40
2022-10-01T22:17:20.321Z,33.03
2022-10-01T22:19:51.297Z,33.10
2022-10-01T22:22:22.516Z,35.80
2022-10-01T22:24:53.958Z,37.00
2022-10-01T22:27:25.860Z,36.22
2022-10-01T22:29:58.533Z,36.33
2022-10-01T22:32:35.206Z,41.63
2022-10-01T22:35:09.726Z,41.00
2022-10-01T22:37:50.600Z,45.85
2022-10-01T22:40:31.240Z,50.55
2022-10-01T22:43:06.747Z,47.45
2022-10-01T22:45:59.120Z,37.70
2022-10-01T22:48:40.882Z,44.78
2022-10-01T22:51:50.194Z,38.95
2022-10-01T22:54:29.567Z,39.58
2022-10-01T22:57:08.321Z,42.33
2022-10-01T22:59:56.204Z,37.38
2022-10-01T23:02:39.063Z,44.25
2022-10-01T23:05:27.031Z,42.85
2022-10-01T23:07:57.349Z,35.80
2022-10-01T23:10:36.874Z,40.80
2022-10-01T23:13:20.120Z,37.45
2022-10-01T23:15:47.398Z,34.67
2022-10-01T23:18:49.975Z,36.15
2022-10-01T23:21:36.619Z,31.48
2022-10-01T23:24:15.547Z,30.83
2022-10-01T23:27:03.488Z,31.75
2022-10-01T23:29:42.699Z,37.13
2022-10-01T23:32:21.178Z,33.47
2022-10-01T23:34:57.586Z,31.40
2022-10-01T23:37:43.552Z,30.05
2022-10-01T23:40:14.514Z,35.53
2022-10-01T23:42:49.442Z,36.80
2022-10-01T23:45:31.428Z,35.53
2022-10-01T23:48:17.403Z,35.47
2022-10-01T23:50:48.972Z,23.80
2022-10-01T23:53:18.360Z,26.23
2022-10-01T23:56:07.279Z,31.67
2022-10-01T23:58:47.435Z,27.25
